Terminal Aerodrome Forecast
Issued by NWS

Home | Current Version | Previous Version | Graphics & Text | Print | Product List | Glossary On
Versions: 1 2 3 4 5 6 7 8 9 10 11 12 13 14 15 16 17 18
000
FTUS43 KICT 211725
TAFSLN
TAF
KSLN 211725Z 2118/2218 04011KT P6SM BKN120
     FM220100 05010KT P6SM VCSH OVC050
     FM220400 05009KT 4SM -SNPL OVC020
     FM220700 04008KT 4SM -FZRAPL OVC010
     FM221300 05007KT 4SM -FZDZ BR OVC007
     FM221700 07006KT P6SM OVC014=

USA.gov is the U.S. government's official web portal to all federal, state and local government web resources and services.